Home > Products > Valid Products > TAF

000
FTUS42 KTBW 312000 AAA
TAFTPA
TAF AMD
KTPA 312059Z 3121/0118 08008KT P6SM FEW050 SCT250
     FM312200 08006KT P6SM FEW040 SCT250
     FM010400 08004KT P6SM SCT250
     FM011400 14012KT P6SM SCT035 SCT250=



000
FTUS42 KTBW 311700
TAFRSW
TAF
KRSW 311721Z 3118/0118 08013KT P6SM SCT250
     FM312100 08012KT P6SM SCT040 SCT250
     FM010100 08006KT P6SM SCT250
     FM011400 13012G18KT P6SM SCT040 SCT250=



000
FTUS42 KTBW 311700
TAFFMY
TAF
KFMY 311721Z 3118/0118 08010KT P6SM SCT250
     FM312100 08010KT P6SM SCT040 SCT250
     FM010100 08006KT P6SM SCT250
     FM011400 13012G18KT P6SM SCT040 SCT250=



000
FTUS42 KTBW 311700
TAFPIE
TAF
KPIE 311721Z 3118/0118 08008KT P6SM SCT250
     FM010300 10009KT P6SM SCT250
     FM011400 14012G18KT P6SM SCT035 SCT250=



000
FTUS42 KTBW 311700
TAFTPA
TAF
KTPA 311721Z 3118/0118 08008KT P6SM SCT250
     FM312200 08006KT P6SM FEW040 SCT250
     FM010400 08004KT P6SM SCT250
     FM011400 14012KT P6SM SCT035 SCT250=



000
FTUS42 KTBW 311700
TAFSRQ
TAF
KSRQ 311721Z 3118/0118 10010KT P6SM SCT250
     FM010200 08006KT P6SM SCT250
     FM011400 14012G18KT P6SM SCT035 SCT250=



000
FTUS42 KTBW 311400 AAA
TAFTPA
TAF AMD
KTPA 311456Z 3115/0112 03007KT P6SM SCT250
     FM311800 07008KT P6SM SCT250
     FM312200 08006KT P6SM FEW040 SCT250
     FM010200 08004KT P6SM SCT250=



000
FTUS42 KTBW 311100
TAFTPA
TAF
KTPA 311135Z 3112/0112 05007KT P6SM SCT250
     FM311500 07007KT P6SM SCT250
     FM311800 09008KT P6SM FEW040 SCT250
     FM312200 09006KT P6SM SCT040 SCT250
     FM010200 09004KT P6SM SCT250=



000
FTUS42 KTBW 311100
TAFSRQ
TAF
KSRQ 311135Z 3112/0112 05008KT P6SM SCT250
     FM311500 07010KT P6SM SCT250
     FM311700 09011KT P6SM FEW040 SCT250
     FM312200 09008KT P6SM SCT040 SCT250
     FM010200 09006KT P6SM SCT250=



000
FTUS42 KTBW 311100
TAFFMY
TAF
KFMY 311135Z 3112/0112 05008KT P6SM SCT250
     FM311500 07012KT P6SM SCT250
     FM311800 09012KT P6SM SCT040 SCT250
     FM312300 09008KT P6SM SCT040 SCT250
     FM010300 08005KT P6SM SCT040 SCT250=



000
FTUS42 KTBW 311100
TAFRSW
TAF
KRSW 311135Z 3112/0112 05008KT P6SM SCT250
     FM311500 07012KT P6SM SCT250
     FM311800 09012KT P6SM SCT040 SCT250
     FM312300 09008KT P6SM SCT040 SCT250
     FM010300 08005KT P6SM SCT040 SCT250=



000
FTUS42 KTBW 311100
TAFPIE
TAF
KPIE 311135Z 3112/0112 05010KT P6SM SCT250
     FM311500 07008KT P6SM SCT250
     FM311800 09007KT P6SM FEW040 SCT250
     FM312200 09007KT P6SM SCT040 SCT250
     FM010200 09010KT P6SM SCT250=



000
FTUS42 KTBW 310900 AAA
TAFTPA
TAF AMD
KTPA 310905Z 3109/0106 04007KT P6SM SCT250
     FM311400 06008KT P6SM SCT250
     FM311800 09008KT P6SM FEW040 SCT250
     FM312300 09006KT P6SM SCT040 SCT250=



000
FTUS42 KTBW 310500
TAFFMY
TAF
KFMY 310535Z 3106/0106 02007KT P6SM SCT250
     FM311400 06012KT P6SM SCT250
     FM311700 09012G18KT P6SM SCT040 SCT250
     FM312300 09008KT P6SM SCT040 SCT250=



000
FTUS42 KTBW 310500
TAFTPA
TAF
KTPA 310535Z 3106/0106 03007KT P6SM SCT250
     FM311400 06008KT P6SM SCT250
     FM311800 09008KT P6SM FEW040 SCT250
     FM312300 09006KT P6SM SCT040 SCT250=



000
FTUS42 KTBW 310500
TAFRSW
TAF
KRSW 310535Z 3106/0106 02007KT P6SM SCT250
     FM311400 06012KT P6SM SCT250
     FM311700 09012G18KT P6SM SCT040 SCT250
     FM312300 09008KT P6SM SCT040 SCT250=



000
FTUS42 KTBW 310500
TAFSRQ
TAF
KSRQ 310535Z 3106/0106 04007KT P6SM SCT250
     FM311400 07010KT P6SM SCT250
     FM311700 10011G17KT P6SM FEW040 SCT250
     FM312300 09007KT P6SM SCT040 SCT250=



000
FTUS42 KTBW 310500
TAFPIE
TAF
KPIE 310535Z 3106/0106 03012KT P6SM SCT250
     FM311400 06009KT P6SM SCT250
     FM311800 09007KT P6SM FEW040 SCT250
     FM312300 09009KT P6SM SCT040 SCT250=



000
FTUS42 KTBW 310100 AAA
TAFTPA
TAF AMD
KTPA 310201Z 3102/3124 34008KT P6SM SCT250
     FM310500 01007KT P6SM FEW250
     FM311400 05008KT P6SM FEW250=



000
FTUS42 KTBW 302300
TAFPIE
TAF
KPIE 302325Z 3100/3124 33009KT P6SM FEW180 SCT250
     FM310400 01012KT P6SM FEW250
     FM311200 05008KT P6SM FEW250=



000
FTUS42 KTBW 302300
TAFTPA
TAF
KTPA 302325Z 3100/3124 33008KT P6SM FEW180 SCT250
     FM310500 01007KT P6SM FEW250
     FM311400 05008KT P6SM FEW250=



000
FTUS42 KTBW 302300
TAFFMY
TAF
KFMY 302325Z 3100/3124 30008KT P6SM FEW035 SCT250
     FM310600 02007KT P6SM SCT250
     FM311600 06011KT P6SM FEW250=



000
FTUS42 KTBW 302300
TAFSRQ
TAF
KSRQ 302325Z 3100/3124 32006KT P6SM FEW030 SCT250
     FM310400 01010KT P6SM FEW250
     FM311400 06009KT P6SM FEW250=



000
FTUS42 KTBW 302300
TAFRSW
TAF
KRSW 302325Z 3100/3124 30007KT P6SM FEW035 SCT250
     FM310600 02007KT P6SM SCT250
     FM311600 06011KT P6SM FEW250=



000
FTUS42 KTBW 302000 AAA
TAFTPA
TAF AMD
KTPA 302056Z 3021/3118 32010KT P6SM SCT025 SCT250
     FM310000 35008KT P6SM SCT250
     FM310400 02005KT P6SM SCT250=



000
FTUS42 KTBW 301700
TAFPIE
TAF
KPIE 301726Z 3018/3118 27009KT P6SM SCT025 BKN035
      TEMPO 3018/3021 BKN025
     FM302100 33013KT P6SM SCT250
     FM310000 35010KT P6SM SCT250
     FM310400 02009KT P6SM SCT250=



000
FTUS42 KTBW 301700
TAFSRQ
TAF
KSRQ 301726Z 3018/3118 23007KT P6SM SCT250
     FM301900 30007KT P6SM SCT025 BKN035
      TEMPO 3019/3022 BKN025
     FM302200 33010KT P6SM SCT250
     FM310100 36008KT P6SM SCT250
     FM310500 02005KT P6SM SCT250=



000
FTUS42 KTBW 301700
TAFRSW
TAF
KRSW 301726Z 3018/3118 28006KT P6SM SCT035 SCT250
     FM302100 30008KT P6SM SCT035 SCT250
      TEMPO 3021/3024 BKN035
     FM310300 36006KT P6SM SCT250
     FM310600 03007KT P6SM SCT250=



000
FTUS42 KTBW 301700
TAFTPA
TAF
KTPA 301726Z 3018/3118 26006KT P6SM SCT025 BKN035
      TEMPO 3018/3021 BKN025
     FM302100 32010KT P6SM SCT250
     FM310000 35008KT P6SM SCT250
     FM310400 02005KT P6SM SCT250=



000
FTUS42 KTBW 301700
TAFFMY
TAF
KFMY 301726Z 3018/3118 28006KT P6SM SCT035 SCT250
     FM302100 30010KT P6SM SCT035 SCT250
      TEMPO 3021/3024 BKN035
     FM310300 36008KT P6SM SCT250
     FM310600 03008KT P6SM SCT250=



000
FTUS42 KTBW 301500 AAA
TAFTPA
TAF AMD
KTPA 301501Z 3015/3112 VRB03KT P6SM BKN035
      TEMPO 3015/3017 SCT035 SCT250
     FM301700 32012KT P6SM SCT035 SCT250
     FM310200 35006KT P6SM SCT250=



000
FTUS42 KTBW 301100
TAFFMY
TAF
KFMY 301120Z 3012/3112 VRB04KT P6SM FEW250
     FM301500 34009KT P6SM FEW040 SCT250=



000
FTUS42 KTBW 301100
TAFTPA
TAF
KTPA 301120Z 3012/3112 VRB03KT P6SM FEW250
     FM301400 31007KT P6SM FEW025 SCT250
     FM301700 32012KT P6SM SCT030 BKN250
     FM310200 35006KT P6SM SCT250=



000
FTUS42 KTBW 301100
TAFRSW
TAF
KRSW 301120Z 3012/3112 VRB04KT P6SM FEW250
     FM301500 34008KT P6SM FEW040 SCT250=



000
FTUS42 KTBW 301100
TAFPIE
TAF
KPIE 301120Z 3012/3112 VRB04KT 4SM BR FEW250
      TEMPO 3012/3013 1SM BR SCT007
     FM301300 31007KT P6SM FEW025 SCT250
     FM301700 33011KT P6SM SCT030 BKN250
     FM310300 02009KT P6SM SCT250=



000
FTUS42 KTBW 301100
TAFSRQ
TAF
KSRQ 301120Z 3012/3112 VRB04KT P6SM FEW250
     FM301400 30007KT P6SM FEW025 SCT250
     FM301900 33010KT P6SM SCT030 BKN250
     FM310200 02006KT P6SM SCT250=



000
FTUS42 KTBW 301000 AAB
TAFPIE
TAF AMD
KPIE 301009Z 3010/3106 VRB04KT 4SM BR FEW250
      TEMPO 3010/3013 1SM BR SCT007
     FM301300 31007KT P6SM FEW025 SCT250
     FM301700 33011KT P6SM SCT030 BKN250=



000
FTUS42 KTBW 300900 AAA
TAFTPA
TAF AMD
KTPA 300904Z 3009/3106 VRB03KT P6SM FEW250
     FM301400 31007KT P6SM FEW025 SCT250
     FM301700 32012KT P6SM SCT030 BKN250
     FM310200 35006KT P6SM SCT250=



000
FTUS42 KTBW 300700 AAA
TAFPIE
TAF AMD
KPIE 300701Z 3007/3106 VRB04KT 4SM BR FEW250
      TEMPO 3007/3010 1SM BR SCT007
     FM301300 31007KT P6SM FEW025 SCT250
     FM301700 33011KT P6SM SCT030 BKN250=



000
FTUS42 KTBW 300500
TAFFMY
TAF
KFMY 300529Z 3006/3106 VRB04KT P6SM FEW250
     FM301500 34008KT P6SM FEW040 SCT250=



000
FTUS42 KTBW 300500
TAFRSW
TAF
KRSW 300529Z 3006/3106 VRB04KT P6SM FEW250
     FM301500 33008KT P6SM FEW040 SCT250=



000
FTUS42 KTBW 300500
TAFTPA
TAF
KTPA 300529Z 3006/3106 VRB04KT P6SM FEW250
     FM301400 31007KT P6SM FEW025 SCT250
     FM301700 32012KT P6SM SCT030 BKN250
     FM310200 35006KT P6SM SCT250=



000
FTUS42 KTBW 300500
TAFPIE
TAF
KPIE 300529Z 3006/3106 VRB04KT P6SM FEW250
     FM301400 31007KT P6SM FEW025 SCT250
     FM301700 33011KT P6SM SCT030 BKN250=



000
FTUS42 KTBW 300500
TAFSRQ
TAF
KSRQ 300529Z 3006/3106 VRB04KT P6SM FEW250
     FM301400 32007KT P6SM FEW025 SCT250
     FM301900 31010KT P6SM SCT030 BKN250
     FM310200 35006KT P6SM SCT250=



000
FTUS42 KTBW 300200 AAA
TAFTPA
TAF AMD
KTPA 300248Z 3003/3024 VRB04KT P6SM FEW250
     FM301400 31007KT P6SM FEW025 SCT250
     FM301700 32012KT P6SM SCT035 BKN250=



000
FTUS42 KTBW 292300
TAFSRQ
TAF
KSRQ 292320Z 3000/3024 VRB04KT P6SM FEW250
     FM301400 32007KT P6SM FEW025 SCT250
     FM301900 31010KT P6SM SCT035 BKN250=



000
FTUS42 KTBW 292300
TAFFMY
TAF
KFMY 292320Z 3000/3024 VRB04KT P6SM FEW250
     FM301500 34008KT P6SM FEW040 SCT250=



000
FTUS42 KTBW 292300
TAFPIE
TAF
KPIE 292320Z 3000/3024 VRB04KT P6SM FEW250
     FM301400 31007KT P6SM FEW025 SCT250
     FM301700 33011KT P6SM SCT035 BKN250=



000
FTUS42 KTBW 292300
TAFRSW
TAF
KRSW 292320Z 3000/3024 VRB04KT P6SM FEW250
     FM301500 34008KT P6SM FEW040 SCT250=



000
FTUS42 KTBW 292300
TAFTPA
TAF
KTPA 292320Z 3000/3024 VRB04KT P6SM FEW250
     FM301400 30007KT P6SM FEW025 SCT250
     FM301700 32011KT P6SM SCT035 BKN250=



000
FTUS42 KTBW 292100 AAA
TAFTPA
TAF AMD
KTPA 292108Z 2921/3018 27007KT P6SM SKC
     FM300100 VRB04KT P6SM FEW250
     FM301300 32006KT P6SM SCT035 SCT250=



000
FTUS42 KTBW 291700
TAFRSW
TAF
KRSW 291720Z 2918/3018 08012KT P6SM FEW250
     FM292200 34004KT P6SM FEW250
     FM300100 VRB03KT P6SM FEW250
     FM300800 VRB03KT 6SM BR FEW250=



000
FTUS42 KTBW 291700
TAFTPA
TAF
KTPA 291720Z 2918/3018 03006KT P6SM FEW250
     FM292000 29007KT P6SM FEW250
     FM300200 VRB03KT P6SM FEW035 FEW250=



000
FTUS42 KTBW 291700
TAFSRQ
TAF
KSRQ 291720Z 2918/3018 09008KT P6SM FEW250
     FM292000 28008KT P6SM FEW250
     FM300100 VRB03KT P6SM FEW250=



000
FTUS42 KTBW 291700
TAFPIE
TAF
KPIE 291720Z 2918/3018 07006KT P6SM FEW250
     FM292000 30007KT P6SM FEW250
     FM300200 VRB03KT P6SM FEW035 FEW250=



000
FTUS42 KTBW 291700
TAFFMY
TAF
KFMY 291720Z 2918/3018 11012KT P6SM FEW250
     FM292200 32005KT P6SM FEW250
     FM300100 VRB03KT P6SM FEW250
     FM300800 VRB03KT 6SM BR FEW250=



000
FTUS42 KTBW 291600 AAA
TAFRSW
TAF AMD
KRSW 291600Z 2916/3012 08012KT P6SM FEW250
     FM292300 08006KT P6SM FEW250
     FM300100 VRB03KT P6SM FEW250
     FM300800 VRB03KT 5SM BR FEW015 FEW250=



000
FTUS42 KTBW 291400 AAA
TAFTPA
TAF AMD
KTPA 291459Z 2915/3012 03006KT P6SM FEW250
     FM291900 29007KT P6SM FEW250
     FM300200 VRB03KT P6SM FEW035 FEW250=



000
FTUS42 KTBW 291100
TAFRSW
TAF
KRSW 291120Z 2912/3012 04005KT P6SM FEW250
     FM292000 28006KT P6SM FEW040 SCT250
     FM300100 VRB03KT P6SM FEW250
     FM300800 VRB03KT 5SM BR FEW015 FEW250=



000
FTUS42 KTBW 291100
TAFTPA
TAF
KTPA 291120Z 2912/3012 VRB03KT P6SM FEW250
     FM291900 29007KT P6SM SCT250
     FM300200 VRB03KT P6SM FEW035 FEW250=



000
FTUS42 KTBW 291100
TAFPIE
TAF
KPIE 291120Z 2912/3012 06007KT P6SM FEW250
     FM292000 30007KT P6SM SCT250
     FM300200 VRB03KT P6SM FEW035 FEW250=



000
FTUS42 KTBW 291100
TAFFMY
TAF
KFMY 291120Z 2912/3012 04006KT P6SM FEW250
     FM292000 28006KT P6SM FEW040 SCT250
     FM300100 VRB03KT P6SM FEW250
     FM300800 VRB03KT 5SM BR FEW015 FEW250=



000
FTUS42 KTBW 291100
TAFSRQ
TAF
KSRQ 291120Z 2912/3012 05007KT P6SM FEW250
     FM291900 30008KT P6SM SCT250
     FM300100 VRB03KT P6SM FEW035 FEW250=



000
FTUS42 KTBW 290900 AAA
TAFTPA
TAF AMD
KTPA 290905Z 2909/3006 VRB03KT P6SM SKC
     FM291900 25007KT P6SM SCT250
     FM300200 VRB03KT P6SM FEW250=



000
FTUS42 KTBW 290500
TAFPIE
TAF
KPIE 290534Z 2906/3006 07012KT P6SM SKC
     FM291600 06007KT P6SM FEW250
     FM292000 30007KT P6SM SCT250
     FM300200 VRB03KT P6SM FEW250=



000
FTUS42 KTBW 290500
TAFFMY
TAF
KFMY 290534Z 2906/3006 05006KT P6SM SKC
     FM292000 27006KT P6SM FEW040 SCT250
     FM300100 VRB03KT P6SM FEW250=



000
FTUS42 KTBW 290500
TAFSRQ
TAF
KSRQ 290534Z 2906/3006 07007KT P6SM SKC
     FM291900 26008KT P6SM SCT250
     FM300100 VRB03KT P6SM FEW250=



000
FTUS42 KTBW 290500
TAFTPA
TAF
KTPA 290534Z 2906/3006 06006KT P6SM SKC
     FM291900 25007KT P6SM SCT250
     FM300200 VRB03KT P6SM FEW250=



000
FTUS42 KTBW 290500
TAFRSW
TAF
KRSW 290534Z 2906/3006 04005KT P6SM SKC
     FM291600 05008KT P6SM FEW040 SCT250
     FM300100 VRB03KT P6SM FEW250=



000
FTUS42 KTBW 290200 AAA
TAFTPA
TAF AMD
KTPA 290258Z 2903/2924 04004KT P6SM SKC
     FM291700 08007KT P6SM FEW250
     FM292100 VRB03KT P6SM FEW250=



000
FTUS42 KTBW 282300
TAFFMY
TAF
KFMY 282335Z 2900/2924 03005KT P6SM FEW250
     FM291700 07009KT P6SM FEW250
     FM292200 07007KT P6SM FEW035=



000
FTUS42 KTBW 282300
TAFPIE
TAF
KPIE 282335Z 2900/2924 35007KT P6SM FEW250
     FM291700 08007KT P6SM FEW250
     FM292000 VRB03KT P6SM FEW250=



000
FTUS42 KTBW 282300
TAFSRQ
TAF
KSRQ 282335Z 2900/2924 35005KT P6SM FEW250
     FM291700 08008KT P6SM FEW250
     FM292000 09004KT P6SM FEW250
     FM292100 00000KT P6SM FEW250=



000
FTUS42 KTBW 282300
TAFTPA
TAF
KTPA 282335Z 2900/2924 35005KT P6SM FEW250
     FM291700 08007KT P6SM FEW250
     FM292100 VRB03KT P6SM FEW250=



000
FTUS42 KTBW 282300
TAFRSW
TAF
KRSW 282335Z 2900/2924 04005KT P6SM FEW250
     FM291600 05008KT P6SM FEW250
     FM292300 06006KT P6SM SCT035=



    US Dept of Commerce
    National Oceanic and Atmospheric Administration
    National Weather Service
    1325 East West Highway
    Silver Spring, MD 20910
    Page Author: NWS Internet Services Team
Disclaimer
Information Quality
Credits
Glossary
Privacy Policy
Freedom of Information Act (FOIA)
About Us
Career Opportunities